Time;durP1;ratioP1;P1;durP2;ratioP2;P2;SDS_P1;SDS_P2;PMS_P1;PMS_P2;Temp;Humidity;BMP_temperature;BMP_pressure;BME280_temperature;BME280_humidity;BME280_pressure;Samples;Min_cycle;Max_cycle;Signal;HPM_P1;HPM_P2
2022/01/29 00:00:00;;;;;;;32.27;17.43;;;5.60;1.00;;;;;;6244370;23;20159;-70
2022/01/29 00:02:28;;;;;;;34.97;18.20;;;5.60;1.00;;;;;;6244612;23;20163;-70
2022/01/29 00:04:55;;;;;;;38.87;18.97;;;5.60;99.90;;;;;;6244177;23;20159;-70
2022/01/29 00:07:22;;;;;;;35.07;19.03;;;5.70;1.00;;;;;;6244686;23;20165;-70
2022/01/29 00:09:50;;;;;;;36.63;20.33;;;5.70;1.00;;;;;;6245912;23;20484;-70
2022/01/29 00:12:17;;;;;;;38.77;20.77;;;5.60;1.00;;;;;;6245850;23;20464;-70
2022/01/29 00:14:44;;;;;;;40.57;21.80;;;5.70;1.00;;;;;;6245369;23;20637;-71
2022/01/29 00:17:12;;;;;;;39.30;21.33;;;5.70;1.00;;;;;;6245543;23;20166;-70
2022/01/29 00:19:41;;;;;;;40.67;20.60;;;5.80;1.00;;;;;;6245345;23;20221;-70
2022/01/29 00:22:08;;;;;;;40.93;21.23;;;5.80;1.00;;;;;;6244504;23;20213;-70
2022/01/29 00:24:36;;;;;;;43.60;21.73;;;5.80;1.00;;;;;;6244047;23;20155;-70
2022/01/29 00:27:09;;;;;;;40.13;20.63;;;5.80;1.00;;;;;;6245777;23;20159;-70
2022/01/29 00:29:38;;;;;;;37.77;20.17;;;5.80;1.00;;;;;;6245210;23;20540;-70
2022/01/29 00:32:05;;;;;;;37.67;19.30;;;5.70;1.00;;;;;;6244610;23;20163;-70
2022/01/29 00:34:32;;;;;;;39.73;19.90;;;5.80;1.00;;;;;;6244225;23;20185;-70
2022/01/29 00:36:59;;;;;;;41.40;20.97;;;5.80;1.00;;;;;;6243882;23;20190;-70
2022/01/29 00:39:26;;;;;;;36.33;19.57;;;5.80;30.00;;;;;;6245393;23;20169;-70
2022/01/29 00:41:53;;;;;;;38.53;20.00;;;5.80;90.10;;;;;;6245478;23;20579;-70
2022/01/29 00:44:21;;;;;;;36.13;18.43;;;5.80;1.00;;;;;;6243877;23;20159;-70
2022/01/29 00:46:48;;;;;;;33.80;18.27;;;5.80;1.00;;;;;;6244579;23;20595;-70
2022/01/29 00:49:15;;;;;;;35.83;18.20;;;5.90;1.00;;;;;;6245488;23;20182;-70
2022/01/29 00:51:42;;;;;;;37.27;19.80;;;5.90;1.00;;;;;;6244660;23;20163;-70
2022/01/29 00:54:09;;;;;;;36.73;19.60;;;5.90;1.00;;;;;;6245350;23;20655;-75
2022/01/29 00:56:36;;;;;;;42.50;21.20;;;5.90;1.00;;;;;;6245615;23;20173;-75
2022/01/29 00:59:03;;;;;;;36.67;19.83;;;6.00;1.00;;;;;;6244399;23;20423;-75
2022/01/29 01:01:31;;;;;;;38.37;20.03;;;6.00;1.00;;;;;;6245201;23;20163;-75
2022/01/29 01:03:58;;;;;;;36.53;20.13;;;5.90;1.00;;;;;;6244704;23;20470;-75
2022/01/29 01:06:25;;;;;;;37.53;20.07;;;5.90;1.00;;;;;;6245036;23;20185;-75
2022/01/29 01:08:52;;;;;;;39.23;20.87;;;5.90;1.00;;;;;;6243834;23;20165;-75
2022/01/29 01:11:19;;;;;;;35.57;19.77;;;5.90;1.00;;;;;;6244967;23;20190;-75
2022/01/29 01:13:45;;;;;;;37.87;20.37;;;5.90;75.30;;;;;;6244537;23;20821;-75
2022/01/29 01:16:12;;;;;;;40.97;21.53;;;5.90;99.90;;;;;;6245205;23;20173;-75
2022/01/29 01:18:40;;;;;;;36.60;20.23;;;5.90;99.90;;;;;;6245503;23;20583;-75
2022/01/29 01:21:07;;;;;;;37.23;20.67;;;5.90;99.90;;;;;;6244352;23;20482;-75
2022/01/29 01:23:34;;;;;;;37.77;20.20;;;5.90;99.90;;;;;;6244814;23;20155;-75
2022/01/29 01:26:01;;;;;;;36.63;20.60;;;6.00;99.90;;;;;;6244826;23;20469;-75
2022/01/29 01:28:29;;;;;;;39.73;19.43;;;6.00;1.00;;;;;;6243740;23;20194;-75
2022/01/29 01:30:56;;;;;;;35.60;20.43;;;6.00;1.00;;;;;;6244842;23;20447;-75
2022/01/29 01:33:23;;;;;;;41.00;22.03;;;6.10;1.00;;;;;;6244848;23;20249;-75
2022/01/29 01:35:55;;;;;;;35.83;20.03;;;6.10;1.00;;;;;;6244190;23;20158;-75
2022/01/29 01:38:25;;;;;;;35.00;20.03;;;6.00;1.00;;;;;;6243492;23;20169;-75
2022/01/29 01:40:56;;;;;;;37.60;20.93;;;6.10;18.60;;;;;;6244485;23;20158;-75
2022/01/29 01:43:23;;;;;;;38.93;20.80;;;6.00;99.90;;;;;;6244492;23;20208;-75
2022/01/29 01:45:50;;;;;;;35.17;19.03;;;6.10;1.00;;;;;;6244220;23;20158;-75
2022/01/29 01:48:17;;;;;;;36.30;18.43;;;6.20;1.00;;;;;;6244787;23;20269;-75
2022/01/29 01:50:44;;;;;;;41.03;21.97;;;6.20;1.00;;;;;;6243930;23;20162;-74
2022/01/29 01:53:12;;;;;;;38.13;19.93;;;6.30;1.00;;;;;;6243039;23;20169;-74
2022/01/29 01:55:39;;;;;;;39.37;20.53;;;6.30;1.00;;;;;;6244458;23;20159;-75
2022/01/29 01:58:06;;;;;;;37.43;19.03;;;6.30;1.00;;;;;;6243095;23;20163;-75
2022/01/29 02:00:34;;;;;;;35.80;19.67;;;6.40;1.00;;;;;;6243668;23;20169;-75
2022/01/29 02:03:01;;;;;;;39.97;20.60;;;6.40;1.00;;;;;;6244083;23;20159;-75
2022/01/29 02:05:28;;;;;;;33.37;18.27;;;6.40;1.00;;;;;;6243703;23;20159;-75
2022/01/29 02:07:55;;;;;;;36.73;19.20;;;6.30;1.00;;;;;;6243437;23;20158;-75
2022/01/29 02:10:25;;;;;;;35.57;19.93;;;6.30;1.00;;;;;;6244574;23;20173;-75
2022/01/29 02:12:56;;;;;;;33.43;17.77;;;6.40;1.00;;;;;;6244044;23;20186;-75
2022/01/29 02:15:24;;;;;;;33.47;17.77;;;6.40;1.00;;;;;;6242257;23;20722;-75
2022/01/29 02:17:51;;;;;;;35.10;19.23;;;6.50;1.00;;;;;;6243913;23;20162;-75
2022/01/29 02:20:20;;;;;;;33.63;18.83;;;6.50;1.00;;;;;;6244502;23;20490;-75
2022/01/29 02:22:48;;;;;;;30.10;17.37;;;6.50;1.00;;;;;;6243738;23;20467;-75
2022/01/29 02:25:33;;;;;;;33.07;19.00;;;6.50;1.00;;;;;;6244297;23;20161;-75
2022/01/29 02:28:02;;;;;;;36.60;20.00;;;6.50;1.00;;;;;;6243159;23;20158;-75
2022/01/29 02:30:32;;;;;;;38.93;20.00;;;6.50;1.00;;;;;;6244112;23;20172;-75
2022/01/29 02:32:59;;;;;;;34.57;17.50;;;6.50;1.00;;;;;;6244505;23;20167;-75
2022/01/29 02:35:26;;;;;;;32.60;17.90;;;6.50;1.00;;;;;;6243259;23;20179;-75
2022/01/29 02:37:55;;;;;;;32.23;17.87;;;6.60;1.00;;;;;;6244019;23;20174;-75
2022/01/29 02:40:22;;;;;;;34.03;18.67;;;6.50;1.00;;;;;;6244787;23;20189;-75
2022/01/29 02:42:51;;;;;;;34.83;18.93;;;6.50;1.00;;;;;;6243834;23;20169;-75
2022/01/29 02:45:18;;;;;;;35.20;18.77;;;6.50;1.00;;;;;;6243944;23;20577;-75
2022/01/29 02:47:45;;;;;;;34.67;19.47;;;6.50;1.00;;;;;;6242964;23;20266;-75
2022/01/29 02:50:12;;;;;;;34.60;19.73;;;6.50;1.00;;;;;;6243540;23;20586;-75
2022/01/29 02:52:39;;;;;;;38.30;20.00;;;6.50;99.90;;;;;;6243519;23;20617;-75
2022/01/29 02:55:09;;;;;;;34.07;18.43;;;6.40;1.00;;;;;;6243594;23;20209;-75
2022/01/29 02:57:36;;;;;;;36.10;19.27;;;6.40;1.00;;;;;;6244057;23;20159;-75
2022/01/29 03:00:03;;;;;;;36.87;18.23;;;6.40;1.00;;;;;;6243805;23;20241;-74
2022/01/29 03:02:30;;;;;;;32.73;18.60;;;6.40;1.00;;;;;;6244312;23;20598;-74
2022/01/29 03:04:57;;;;;;;38.10;19.27;;;6.40;1.00;;;;;;6243851;23;20159;-74
2022/01/29 03:07:24;;;;;;;37.37;18.53;;;6.40;1.00;;;;;;6242544;23;20165;-75
2022/01/29 03:09:51;;;;;;;32.77;18.60;;;6.30;99.90;;;;;;6243670;23;20159;-74
2022/01/29 03:12:19;;;;;;;34.70;20.47;;;6.30;99.90;;;;;;6242738;23;20174;-75
2022/01/29 03:14:46;;;;;;;31.17;18.07;;;6.30;99.90;;;;;;6242333;23;20189;-74
2022/01/29 03:17:13;;;;;;;32.00;18.53;;;6.30;1.00;;;;;;6244081;23;20165;-74
2022/01/29 03:19:40;;;;;;;33.07;18.73;;;6.30;99.90;;;;;;6243023;23;20159;-75
2022/01/29 03:22:07;;;;;;;30.93;18.80;;;6.30;1.00;;;;;;6243811;23;20638;-74
2022/01/29 03:24:34;;;;;;;34.33;19.00;;;6.30;1.00;;;;;;6244051;23;20481;-74
2022/01/29 03:27:01;;;;;;;36.23;18.50;;;6.30;1.00;;;;;;6244296;23;20159;-74
2022/01/29 03:29:29;;;;;;;37.13;18.37;;;6.30;1.00;;;;;;6245585;23;20529;-74
2022/01/29 03:31:56;;;;;;;30.60;18.07;;;6.20;1.00;;;;;;6246313;23;20165;-74
2022/01/29 03:34:23;;;;;;;32.23;18.20;;;6.30;1.00;;;;;;6245294;23;20261;-74
2022/01/29 03:36:49;;;;;;;36.47;19.80;;;6.20;1.00;;;;;;6246285;23;20163;-74
2022/01/29 03:39:16;;;;;;;31.73;18.00;;;6.20;1.00;;;;;;6244952;23;20237;-74
2022/01/29 03:41:43;;;;;;;32.03;18.70;;;6.20;1.00;;;;;;6245572;23;20245;-74
2022/01/29 03:44:10;;;;;;;31.37;18.03;;;6.20;1.00;;;;;;6244168;23;20162;-74
2022/01/29 03:46:38;;;;;;;31.70;17.77;;;6.20;1.00;;;;;;6245552;23;20726;-74
2022/01/29 03:49:05;;;;;;;34.13;17.50;;;6.30;1.00;;;;;;6245549;23;20189;-74
2022/01/29 03:51:32;;;;;;;29.47;17.77;;;6.30;1.00;;;;;;6245015;23;20474;-74
2022/01/29 03:53:59;;;;;;;33.27;18.37;;;6.20;1.00;;;;;;6245688;23;20169;-74
2022/01/29 03:56:25;;;;;;;27.17;16.00;;;6.30;1.00;;;;;;6245941;23;20158;-74
2022/01/29 03:58:52;;;;;;;28.57;16.27;;;6.30;1.00;;;;;;6244563;23;20159;-74
2022/01/29 04:01:19;;;;;;;31.50;16.80;;;6.30;99.90;;;;;;6245039;23;20246;-74
2022/01/29 04:03:47;;;;;;;30.27;15.63;;;6.30;1.00;;;;;;6245097;23;20634;-74
2022/01/29 04:06:15;;;;;;;28.40;16.10;;;6.30;1.00;;;;;;6245694;23;20159;-74
2022/01/29 04:08:43;;;;;;;26.97;15.20;;;6.40;99.90;;;;;;6244701;23;20166;-74
2022/01/29 04:11:12;;;;;;;27.67;16.23;;;6.40;1.00;;;;;;6245742;23;20468;-74
2022/01/29 04:13:41;;;;;;;27.20;14.70;;;6.30;1.00;;;;;;6245504;23;20602;-74
2022/01/29 04:16:07;;;;;;;26.97;15.70;;;6.30;1.00;;;;;;6245151;23;20189;-74
2022/01/29 04:18:35;;;;;;;27.67;14.80;;;6.30;1.00;;;;;;6245524;23;20163;-74
2022/01/29 04:21:04;;;;;;;29.23;15.80;;;6.30;1.00;;;;;;6245001;23;20162;-74
2022/01/29 04:23:31;;;;;;;28.27;15.33;;;6.30;1.00;;;;;;6244726;23;20578;-75
2022/01/29 04:26:00;;;;;;;28.90;15.67;;;6.30;1.00;;;;;;6245530;23;20473;-74
2022/01/29 04:28:30;;;;;;;27.33;15.07;;;6.30;1.00;;;;;;6244828;23;20158;-74
2022/01/29 04:31:00;;;;;;;27.97;15.90;;;6.30;1.00;;;;;;6245060;23;20194;-74
2022/01/29 04:33:30;;;;;;;25.17;13.83;;;6.30;1.00;;;;;;6245813;23;20590;-74
2022/01/29 04:35:59;;;;;;;25.87;14.93;;;6.40;1.00;;;;;;6245312;23;20189;-74
2022/01/29 04:38:29;;;;;;;26.77;14.93;;;6.40;1.00;;;;;;6244833;23;20159;-74
2022/01/29 04:40:58;;;;;;;25.03;14.73;;;6.40;1.00;;;;;;6244232;23;20173;-74
2022/01/29 04:43:25;;;;;;;28.53;15.43;;;6.40;1.00;;;;;;6244032;23;20468;-74
2022/01/29 04:45:52;;;;;;;27.17;15.40;;;6.40;1.00;;;;;;6244514;23;20155;-74
2022/01/29 04:48:18;;;;;;;31.07;16.40;;;6.40;1.00;;;;;;6244312;23;20192;-74
2022/01/29 04:50:45;;;;;;;28.37;16.20;;;6.40;1.00;;;;;;6244753;23;20159;-74
2022/01/29 04:53:12;;;;;;;27.60;16.23;;;6.40;1.00;;;;;;6245731;23;20192;-75
2022/01/29 04:55:40;;;;;;;29.20;16.13;;;6.40;1.00;;;;;;6245040;23;20193;-74
2022/01/29 04:58:07;;;;;;;25.93;14.60;;;6.40;1.00;;;;;;6244260;23;20609;-74
2022/01/29 05:00:35;;;;;;;27.27;16.40;;;6.40;1.00;;;;;;6244774;23;20173;-74
2022/01/29 05:03:08;;;;;;;27.47;15.37;;;6.40;1.00;;;;;;6244727;23;20162;-74
2022/01/29 05:05:35;;;;;;;27.70;15.33;;;6.40;1.00;;;;;;6244943;23;20197;-74
2022/01/29 05:08:02;;;;;;;29.00;15.83;;;6.50;1.00;;;;;;6243447;23;20159;-74
2022/01/29 05:10:30;;;;;;;30.00;16.87;;;6.40;1.00;;;;;;6245615;23;20209;-74
2022/01/29 05:13:02;;;;;;;28.20;16.33;;;6.40;1.00;;;;;;6244940;23;20610;-74
2022/01/29 05:15:36;;;;;;;27.33;16.47;;;6.40;1.00;;;;;;6244318;23;20178;-75
2022/01/29 05:29:05;;;;;;;25.63;14.67;;;6.50;1.00;;;;;;6244035;23;20154;-75
2022/01/29 05:31:31;;;;;;;26.03;13.40;;;6.50;1.00;;;;;;6245099;23;20245;-74
2022/01/29 05:33:59;;;;;;;23.70;13.90;;;6.60;1.00;;;;;;6244148;23;20169;-75
2022/01/29 05:36:25;;;;;;;25.00;14.33;;;6.50;1.00;;;;;;6244638;23;20182;-75
2022/01/29 05:38:53;;;;;;;22.90;12.53;;;6.60;1.00;;;;;;6244537;23;20468;-74
2022/01/29 05:41:20;;;;;;;26.90;14.40;;;6.60;1.00;;;;;;6245311;23;20169;-75
2022/01/29 05:43:47;;;;;;;24.83;14.30;;;6.60;1.00;;;;;;6244145;23;20171;-75
2022/01/29 05:46:16;;;;;;;26.03;14.93;;;6.70;1.00;;;;;;6244117;23;20483;-75
2022/01/29 05:48:44;;;;;;;26.77;13.97;;;6.60;1.00;;;;;;6244523;23;20188;-74
2022/01/29 05:51:11;;;;;;;27.07;14.50;;;6.60;1.00;;;;;;6243520;23;20162;-74
2022/01/29 05:53:38;;;;;;;23.73;14.23;;;6.60;30.60;;;;;;6244523;23;20182;-74
2022/01/29 05:56:06;;;;;;;27.40;15.40;;;6.60;56.60;;;;;;6244860;23;20204;-75
2022/01/29 05:58:33;;;;;;;25.50;15.37;;;6.60;99.90;;;;;;6244076;23;20165;-74
2022/01/29 06:01:00;;;;;;;26.37;14.43;;;6.60;99.90;;;;;;6244676;23;20166;-74
2022/01/29 06:03:29;;;;;;;25.10;13.97;;;6.60;99.90;;;;;;6243627;23;20158;-75
2022/01/29 06:05:55;;;;;;;23.90;14.50;;;6.60;90.50;;;;;;6243270;23;20237;-75
2022/01/29 06:08:22;;;;;;;22.87;13.10;;;6.60;99.90;;;;;;6244390;23;20473;-75
2022/01/29 06:10:49;;;;;;;24.93;13.40;;;6.60;99.90;;;;;;6244240;23;20504;-74
2022/01/29 06:13:17;;;;;;;25.27;14.37;;;6.70;99.90;;;;;;6243692;23;20158;-74
2022/01/29 06:15:46;;;;;;;23.50;14.17;;;6.60;99.90;;;;;;6242815;23;20269;-75
2022/01/29 06:18:16;;;;;;;23.53;13.40;;;6.70;99.90;;;;;;6244683;23;20174;-74
2022/01/29 06:20:45;;;;;;;24.07;13.93;;;6.70;99.90;;;;;;6243653;23;20590;-74
2022/01/29 06:23:13;;;;;;;25.57;14.37;;;6.70;99.90;;;;;;6243364;23;20254;-75
2022/01/29 06:25:41;;;;;;;25.57;14.63;;;6.70;99.90;;;;;;6244217;23;20537;-74
2022/01/29 06:28:08;;;;;;;28.37;15.13;;;6.70;99.90;;;;;;6244541;23;20181;-75
2022/01/29 06:30:35;;;;;;;25.70;15.00;;;6.80;92.70;;;;;;6243571;23;20159;-75
2022/01/29 06:33:08;;;;;;;25.87;15.03;;;6.80;95.20;;;;;;6243744;23;20159;-75
2022/01/29 06:35:36;;;;;;;26.27;15.67;;;6.70;99.90;;;;;;6243275;23;20183;-74
2022/01/29 06:38:05;;;;;;;27.57;15.87;;;6.80;99.90;;;;;;6244604;23;20158;-74
2022/01/29 06:40:32;;;;;;;28.40;16.07;;;6.80;99.90;;;;;;6244318;23;20435;-74
2022/01/29 06:43:01;;;;;;;28.33;15.67;;;6.80;99.90;;;;;;6244646;23;20185;-75
2022/01/29 06:45:28;;;;;;;24.87;15.60;;;6.80;99.90;;;;;;6244588;23;20165;-74
2022/01/29 06:47:55;;;;;;;28.63;17.13;;;6.80;99.90;;;;;;6242875;23;20166;-74
2022/01/29 06:50:22;;;;;;;27.97;16.73;;;6.80;99.90;;;;;;6243937;23;20168;-75
2022/01/29 06:52:48;;;;;;;26.13;15.97;;;6.80;99.90;;;;;;6243544;23;20162;-75
2022/01/29 06:55:17;;;;;;;28.77;16.63;;;6.80;99.90;;;;;;6243914;23;20193;-74
2022/01/29 06:57:44;;;;;;;28.27;15.57;;;6.90;99.90;;;;;;6243427;23;20604;-74
2022/01/29 07:00:12;;;;;;;29.03;16.87;;;6.90;97.60;;;;;;6243764;23;20163;-75
2022/01/29 07:02:39;;;;;;;27.90;16.20;;;6.90;99.90;;;;;;6242581;23;20170;-75
2022/01/29 07:05:07;;;;;;;26.43;16.77;;;6.90;99.90;;;;;;6243293;23;20237;-75
2022/01/29 07:07:34;;;;;;;29.13;16.80;;;6.90;99.90;;;;;;6244162;23;20545;-75
2022/01/29 07:10:01;;;;;;;28.23;16.90;;;6.90;96.10;;;;;;6243734;23;20163;-75
2022/01/29 07:12:29;;;;;;;27.23;16.67;;;6.90;92.70;;;;;;6243702;23;20166;-75
2022/01/29 07:14:56;;;;;;;28.20;17.27;;;6.90;99.90;;;;;;6243645;23;20158;-74
2022/01/29 07:17:24;;;;;;;27.30;17.10;;;6.90;99.90;;;;;;6243922;23;20261;-74
2022/01/29 07:19:52;;;;;;;25.13;15.57;;;6.90;99.90;;;;;;6243760;23;20170;-74
2022/01/29 07:22:19;;;;;;;29.90;17.30;;;6.90;99.90;;;;;;6244731;23;20165;-74
2022/01/29 07:24:46;;;;;;;27.37;16.47;;;7.00;99.90;;;;;;6243192;23;20490;-74
2022/01/29 07:27:14;;;;;;;27.87;16.00;;;7.00;99.90;;;;;;6243705;23;20209;-74
2022/01/29 07:29:42;;;;;;;28.13;16.13;;;7.00;99.90;;;;;;6243285;23;20594;-74
2022/01/29 07:32:10;;;;;;;27.43;16.60;;;7.00;94.90;;;;;;6244498;23;20162;-74
2022/01/29 07:34:37;;;;;;;25.43;16.40;;;7.00;93.00;;;;;;6244409;23;20159;-74
2022/01/29 07:37:04;;;;;;;26.47;16.87;;;7.10;87.80;;;;;;6244434;23;20190;-74
2022/01/29 07:39:32;;;;;;;27.20;16.97;;;7.10;84.50;;;;;;6243590;23;20177;-74
2022/01/29 07:41:59;;;;;;;26.63;16.70;;;7.10;91.70;;;;;;6243869;23;20163;-73
2022/01/29 07:44:26;;;;;;;25.43;15.97;;;7.10;99.90;;;;;;6242889;23;20159;-73
2022/01/29 07:46:54;;;;;;;25.07;15.30;;;7.10;99.90;;;;;;6243603;23;20474;-74
2022/01/29 07:49:21;;;;;;;27.80;16.57;;;7.10;99.90;;;;;;6243758;23;20285;-74
2022/01/29 07:51:48;;;;;;;25.30;16.37;;;7.10;99.90;;;;;;6243228;23;20666;-74
2022/01/29 07:54:15;;;;;;;25.87;16.33;;;7.10;99.90;;;;;;6243837;23;20175;-74
2022/01/29 07:56:41;;;;;;;25.70;15.67;;;7.10;99.90;;;;;;6243525;23;20506;-74
2022/01/29 07:59:08;;;;;;;25.37;15.10;;;7.10;97.30;;;;;;6243096;23;20162;-73
2022/01/29 08:01:35;;;;;;;24.63;15.03;;;7.20;43.60;;;;;;6241989;23;20159;-74
2022/01/29 08:04:03;;;;;;;26.83;15.63;;;7.20;58.70;;;;;;6242925;23;20158;-73
2022/01/29 08:06:30;;;;;;;24.27;15.47;;;7.20;62.30;;;;;;6242756;23;20154;-75
2022/01/29 08:08:57;;;;;;;23.77;14.47;;;7.20;79.30;;;;;;6243261;23;20158;-75
2022/01/29 08:11:25;;;;;;;24.40;15.47;;;7.20;92.50;;;;;;6244197;23;20213;-75
2022/01/29 08:13:52;;;;;;;24.63;15.77;;;7.30;83.40;;;;;;6243048;23;20163;-75
2022/01/29 08:16:19;;;;;;;24.90;15.60;;;7.30;71.80;;;;;;6245651;23;20178;-75
2022/01/29 08:18:46;;;;;;;22.97;14.67;;;7.30;72.10;;;;;;6245783;23;20165;-75
2022/01/29 08:21:15;;;;;;;23.00;14.47;;;7.30;29.50;;;;;;6243875;23;20241;-75
2022/01/29 08:23:43;;;;;;;22.53;14.60;;;7.40;2.00;;;;;;6244471;23;20167;-75
2022/01/29 08:26:10;;;;;;;23.50;14.43;;;7.40;1.00;;;;;;6245485;23;20166;-75
2022/01/29 08:28:37;;;;;;;26.23;16.27;;;7.40;1.00;;;;;;6243582;23;20159;-75
2022/01/29 08:31:05;;;;;;;27.00;15.57;;;7.40;1.00;;;;;;6245404;23;20483;-75
2022/01/29 08:33:32;;;;;;;25.37;15.40;;;7.40;23.10;;;;;;6245001;23;20167;-76
2022/01/29 08:35:59;;;;;;;25.73;15.50;;;7.40;22.10;;;;;;6245242;23;20186;-75
2022/01/29 08:38:27;;;;;;;24.83;16.13;;;7.50;25.60;;;;;;6245270;23;20492;-75
2022/01/29 08:40:54;;;;;;;27.73;16.80;;;7.50;31.80;;;;;;6245383;23;20421;-77
2022/01/29 08:43:22;;;;;;;27.30;16.97;;;7.50;35.20;;;;;;6244930;23;20249;-79
2022/01/29 08:45:49;;;;;;;28.60;16.63;;;7.50;28.60;;;;;;6245343;23;20165;-78
2022/01/29 08:48:16;;;;;;;26.97;15.40;;;7.50;32.40;;;;;;6232638;23;20277;-82
2022/01/29 08:50:43;;;;;;;32.23;18.57;;;7.50;51.30;;;;;;6246358;23;20237;-79
2022/01/29 08:53:10;;;;;;;27.67;16.30;;;7.60;71.90;;;;;;6246448;23;20582;-79
2022/01/29 08:55:38;;;;;;;30.67;17.53;;;7.60;94.20;;;;;;6244656;23;20163;-76
2022/01/29 08:58:06;;;;;;;33.77;17.67;;;7.60;96.60;;;;;;6245547;23;20162;-76
2022/01/29 09:00:33;;;;;;;31.30;17.13;;;7.60;99.90;;;;;;6245429;23;20249;-78
2022/01/29 09:03:00;;;;;;;33.23;19.30;;;7.60;99.90;;;;;;6244931;23;20163;-79
2022/01/29 09:05:27;;;;;;;30.23;17.17;;;7.60;99.90;;;;;;6245064;23;20658;-79
2022/01/29 09:07:54;;;;;;;30.67;17.03;;;7.60;99.90;;;;;;6244886;23;20158;-75
2022/01/29 09:10:21;;;;;;;29.73;17.40;;;7.60;99.90;;;;;;6244925;23;20242;-75
2022/01/29 09:12:49;;;;;;;33.10;18.97;;;7.60;99.90;;;;;;6244211;23;20165;-78
2022/01/29 09:15:16;;;;;;;32.80;18.80;;;7.60;99.90;;;;;;6244545;23;20214;-74
2022/01/29 09:17:43;;;;;;;30.50;17.07;;;7.70;99.90;;;;;;6244917;23;20626;-75
2022/01/29 09:20:11;;;;;;;31.40;17.00;;;7.70;99.90;;;;;;6244572;23;20159;-75
2022/01/29 09:22:38;;;;;;;31.53;18.23;;;7.70;99.90;;;;;;6244812;23;20159;-73
2022/01/29 09:25:06;;;;;;;30.50;17.13;;;7.70;99.90;;;;;;6244056;23;20162;-76
2022/01/29 09:27:33;;;;;;;29.97;17.27;;;7.70;99.90;;;;;;6244765;23;20159;-76
2022/01/29 09:30:01;;;;;;;30.70;17.60;;;7.80;99.90;;;;;;6245055;23;20492;-76
2022/01/29 09:32:29;;;;;;;31.07;17.57;;;7.80;99.90;;;;;;6244851;23;20633;-75
2022/01/29 09:34:55;;;;;;;34.97;19.23;;;7.80;99.90;;;;;;6244545;23;20159;-76
2022/01/29 09:37:22;;;;;;;28.13;17.83;;;7.80;99.90;;;;;;6244450;23;20190;-76
2022/01/29 09:39:49;;;;;;;31.23;17.60;;;7.80;99.90;;;;;;6244507;23;20475;-75
2022/01/29 09:42:16;;;;;;;31.73;18.50;;;7.80;99.90;;;;;;6244393;23;20159;-76
2022/01/29 09:44:45;;;;;;;32.33;17.87;;;7.80;99.90;;;;;;6243995;23;20178;-76
2022/01/29 09:47:16;;;;;;;33.00;17.43;;;7.80;99.90;;;;;;6245002;23;20154;-78
2022/01/29 09:49:43;;;;;;;29.67;16.80;;;7.80;99.90;;;;;;6244021;23;20186;-76
2022/01/29 09:52:10;;;;;;;32.37;17.67;;;7.80;99.90;;;;;;6244363;23;20158;-76
2022/01/29 09:54:37;;;;;;;31.70;17.60;;;7.80;99.90;;;;;;6244486;23;20208;-76
2022/01/29 09:57:04;;;;;;;29.33;16.33;;;7.80;99.90;;;;;;6244235;23;20186;-76
2022/01/29 09:59:31;;;;;;;34.03;17.70;;;7.80;99.90;;;;;;6244418;23;20476;-76
2022/01/29 10:01:58;;;;;;;28.07;16.23;;;7.80;99.90;;;;;;6244911;23;20165;-76
2022/01/29 10:04:29;;;;;;;28.33;15.20;;;7.80;99.90;;;;;;6244124;23;20558;-75
2022/01/29 10:07:16;;;;;;;25.60;15.60;;;7.90;99.90;;;;;;6243747;23;20533;-76
2022/01/29 10:09:43;;;;;;;27.90;15.53;;;7.90;99.90;;;;;;6245051;23;20222;-76
2022/01/29 10:12:22;;;;;;;25.63;14.50;;;7.90;99.90;;;;;;6243921;23;20163;-75
2022/01/29 10:14:57;;;;;;;24.37;14.13;;;7.90;99.90;;;;;;6244354;23;20163;-76
2022/01/29 10:17:44;;;;;;;28.00;15.10;;;8.00;99.90;;;;;;6243440;23;20872;-76
2022/01/29 10:20:20;;;;;;;27.13;14.90;;;8.00;99.90;;;;;;6244572;23;20171;-76
2022/01/29 10:22:49;;;;;;;23.00;12.47;;;8.10;99.90;;;;;;6244379;23;20577;-76
2022/01/29 10:25:18;;;;;;;23.57;12.90;;;8.10;99.90;;;;;;6244712;23;20165;-76
2022/01/29 10:28:13;;;;;;;24.07;13.17;;;8.10;99.90;;;;;;6244695;23;20181;-76
2022/01/29 10:31:01;;;;;;;23.37;12.27;;;8.10;99.90;;;;;;6244542;23;20159;-76
2022/01/29 10:33:30;;;;;;;20.97;11.30;;;8.20;99.90;;;;;;6244644;23;20165;-76
2022/01/29 10:36:00;;;;;;;20.73;11.43;;;8.20;99.90;;;;;;6244355;23;20158;-76
2022/01/29 10:38:29;;;;;;;21.77;11.50;;;8.30;99.90;;;;;;6244068;23;20163;-76
2022/01/29 10:41:21;;;;;;;19.03;10.40;;;8.30;99.90;;;;;;6244656;23;20159;-76
2022/01/29 10:44:14;;;;;;;20.13;10.60;;;8.20;99.90;;;;;;6244604;23;20158;-76
2022/01/29 10:46:46;;;;;;;18.30;9.50;;;8.30;99.90;;;;;;6244135;23;20213;-75
2022/01/29 10:49:28;;;;;;;15.03;8.63;;;8.30;99.90;;;;;;6244303;23;20182;-76
2022/01/29 10:52:03;;;;;;;17.53;8.80;;;8.30;99.90;;;;;;6240401;23;20185;-76
2022/01/29 10:54:30;;;;;;;17.43;9.03;;;8.30;99.90;;;;;;6244368;23;20476;-76
2022/01/29 10:56:59;;;;;;;15.37;8.63;;;8.30;99.90;;;;;;6244570;23;20189;-76
2022/01/29 10:59:28;;;;;;;14.37;7.90;;;8.30;99.90;;;;;;6244521;23;20158;-76
2022/01/29 11:01:56;;;;;;;15.47;8.50;;;8.30;99.90;;;;;;6244928;23;20485;-76
2022/01/29 11:04:26;;;;;;;14.20;7.80;;;8.30;99.90;;;;;;6243973;23;20166;-75
2022/01/29 11:06:55;;;;;;;15.37;8.23;;;8.40;99.90;;;;;;6244282;23;20158;-76
2022/01/29 11:09:23;;;;;;;15.87;8.07;;;8.40;99.90;;;;;;6244261;23;20168;-75
2022/01/29 11:11:52;;;;;;;11.43;6.67;;;8.50;99.90;;;;;;6244691;23;20159;-76
2022/01/29 11:14:20;;;;;;;11.80;6.83;;;8.50;99.90;;;;;;6244204;23;20169;-76
2022/01/29 11:16:48;;;;;;;13.73;7.50;;;8.60;99.90;;;;;;6244181;23;20183;-76
2022/01/29 11:19:16;;;;;;;12.70;7.00;;;8.50;99.90;;;;;;6244734;23;20158;-76
2022/01/29 11:21:45;;;;;;;10.63;6.83;;;8.60;99.90;;;;;;6244274;23;20220;-76
2022/01/29 11:24:17;;;;;;;11.57;6.77;;;8.60;99.90;;;;;;6244589;23;20263;-76
2022/01/29 11:26:46;;;;;;;11.97;6.47;;;8.60;99.90;;;;;;6244624;23;20616;-76
2022/01/29 11:29:32;;;;;;;11.90;6.37;;;8.60;99.90;;;;;;6244569;23;20220;-76
2022/01/29 11:32:32;;;;;;;12.03;6.43;;;8.70;99.90;;;;;;6244135;23;20197;-76
2022/01/29 11:35:10;;;;;;;12.57;6.93;;;8.70;99.90;;;;;;6244496;23;20194;-76
2022/01/29 11:37:43;;;;;;;12.63;6.50;;;8.80;99.90;;;;;;6244048;23;20182;-70
2022/01/29 11:40:20;;;;;;;12.60;6.30;;;8.80;92.00;;;;;;6244507;23;20159;-70
2022/01/29 11:43:23;;;;;;;12.03;7.00;;;8.90;7.80;;;;;;6243906;23;20159;-70
2022/01/29 11:45:53;;;;;;;12.17;6.17;;;9.00;1.00;;;;;;6217370;23;20665;-71
2022/01/29 11:48:55;;;;;;;12.10;6.67;;;9.00;1.00;;;;;;6243850;23;20565;-70
2022/01/29 11:51:50;;;;;;;12.00;5.53;;;9.00;1.00;;;;;;6246423;23;20439;-70
2022/01/29 11:54:25;;;;;;;9.90;5.40;;;9.00;1.00;;;;;;6175562;23;20178;-73
2022/01/29 11:57:11;;;;;;;10.23;5.57;;;9.10;1.00;;;;;;6245743;23;20189;-70
2022/01/29 11:59:41;;;;;;;10.30;5.67;;;9.10;1.00;;;;;;6245619;23;20165;-71
2022/01/29 12:02:42;;;;;;;11.70;6.53;;;9.10;1.00;;;;;;6244375;23;20169;-69
2022/01/29 12:05:11;;;;;;;9.70;5.77;;;9.20;1.00;;;;;;6244887;23;20190;-69
2022/01/29 12:08:19;;;;;;;9.53;5.23;;;9.10;1.00;;;;;;6244868;23;20181;-69
2022/01/29 12:10:56;;;;;;;7.67;5.17;;;9.20;1.00;;;;;;6218331;23;20209;-69
2022/01/29 12:13:25;;;;;;;7.03;4.73;;;9.20;1.00;;;;;;6246009;23;20163;-69
2022/01/29 12:15:55;;;;;;;6.33;4.50;;;9.20;1.00;;;;;;6245255;23;20163;-69
2022/01/29 12:18:37;;;;;;;6.70;4.43;;;9.30;1.00;;;;;;6245143;23;20182;-69
2022/01/29 12:21:08;;;;;;;6.73;4.17;;;9.30;1.00;;;;;;6245805;23;20182;-69
2022/01/29 12:23:51;;;;;;;7.00;4.30;;;9.30;1.00;;;;;;6245358;23;20159;-69
2022/01/29 12:26:22;;;;;;;8.00;4.40;;;9.40;1.00;;;;;;6245228;23;20158;-69
2022/01/29 12:28:57;;;;;;;6.60;4.47;;;9.40;1.00;;;;;;6245052;23;20174;-69
2022/01/29 12:31:27;;;;;;;6.07;4.60;;;9.40;1.00;;;;;;6234226;23;20241;-69
2022/01/29 12:34:10;;;;;;;6.03;4.10;;;9.40;1.00;;;;;;6245463;23;20242;-69
2022/01/29 12:36:39;;;;;;;6.73;4.50;;;9.50;1.00;;;;;;6245017;23;20159;-69
2022/01/29 12:39:08;;;;;;;7.13;4.30;;;9.30;1.00;;;;;;6245238;23;20174;-69
2022/01/29 12:41:40;;;;;;;7.23;4.37;;;9.30;1.00;;;;;;6244457;23;20261;-69
2022/01/29 12:44:21;;;;;;;6.87;4.60;;;9.30;1.00;;;;;;6245346;23;20594;-69
2022/01/29 12:46:50;;;;;;;7.33;4.60;;;9.30;1.00;;;;;;6245575;23;20198;-68
2022/01/29 12:49:20;;;;;;;8.03;4.83;;;9.30;1.00;;;;;;6244151;23;20179;-69
2022/01/29 12:51:57;;;;;;;8.33;4.67;;;9.30;1.00;;;;;;6244234;23;20221;-69
2022/01/29 12:54:28;;;;;;;6.00;3.93;;;9.30;99.90;;;;;;6244099;23;20158;-69
2022/01/29 12:57:00;;;;;;;8.87;4.37;;;9.30;99.90;;;;;;6244143;23;20175;-69
2022/01/29 12:59:27;;;;;;;8.00;4.43;;;9.30;99.90;;;;;;6243665;23;20178;-69
2022/01/29 13:02:04;;;;;;;6.60;4.33;;;9.30;99.90;;;;;;6243785;23;20217;-69
2022/01/29 13:04:34;;;;;;;7.43;4.67;;;9.30;99.90;;;;;;6243676;23;20258;-69